createdAt,value
2023-02-11T01:02:29.727Z,72.78
2023-02-11T02:21:38.991Z,68.82
2023-02-11T02:24:24.574Z,62.45
2023-02-11T02:27:12.968Z,65.68
2023-02-11T02:30:09.513Z,61.13
2023-02-11T02:32:55.450Z,59.53
2023-02-11T02:35:34.366Z,64.28
2023-02-11T02:38:10.800Z,61.65
2023-02-11T02:40:48.902Z,63.45
2023-02-11T02:43:16.792Z,61.10
2023-02-11T02:45:43.888Z,64.35
2023-02-11T02:48:27.111Z,60.40
2023-02-11T02:51:20.447Z,63.22
2023-02-11T02:54:14.787Z,58.42
2023-02-11T02:57:15.785Z,55.72
2023-02-11T02:59:51.549Z,63.92
2023-02-11T03:02:26.625Z,64.68
2023-02-11T03:05:08.653Z,61.88
2023-02-11T03:08:01.591Z,64.50
2023-02-11T03:10:36.245Z,71.05
2023-02-11T03:13:04.676Z,68.15
2023-02-11T03:15:34.890Z,62.95
2023-02-11T03:18:03.918Z,60.53
2023-02-11T03:20:35.834Z,62.72
2023-02-11T03:23:08.104Z,60.83
2023-02-11T03:25:51.916Z,64.75
2023-02-11T03:28:48.186Z,69.45
2023-02-11T03:31:31.610Z,62.08
2023-02-11T03:34:12.777Z,60.72
2023-02-11T03:36:52.040Z,63.20
2023-02-11T03:39:27.429Z,63.92
2023-02-11T03:41:56.287Z,62.67
2023-02-11T03:44:25.299Z,63.95
2023-02-11T03:46:53.709Z,60.85
2023-02-11T03:49:23.487Z,62.13
2023-02-11T03:51:52.745Z,60.00
2023-02-11T03:54:27.126Z,63.67
2023-02-11T03:56:56.997Z,60.63
2023-02-11T03:59:24.035Z,62.35
2023-02-11T04:01:51.367Z,57.95
2023-02-11T04:04:18.597Z,65.60
2023-02-11T04:06:45.488Z,71.72
2023-02-11T04:09:15.064Z,69.45
2023-02-11T04:11:42.079Z,66.95
2023-02-11T04:14:08.940Z,67.72
2023-02-11T04:16:35.834Z,65.40
2023-02-11T04:19:02.824Z,58.13
2023-02-11T04:21:29.736Z,66.07
2023-02-11T04:23:56.652Z,66.05
2023-02-11T04:26:23.979Z,65.45
2023-02-11T04:28:50.826Z,58.33
2023-02-11T04:31:17.773Z,60.40
2023-02-11T04:33:44.861Z,60.50
2023-02-11T04:36:11.812Z,61.10
2023-02-11T04:38:38.793Z,63.38
2023-02-11T04:41:05.856Z,57.33
2023-02-11T04:43:32.771Z,60.95
2023-02-11T04:45:59.721Z,59.50
2023-02-11T04:48:27.077Z,57.42
2023-02-11T04:50:53.949Z,57.08
2023-02-11T04:53:20.967Z,58.85
2023-02-11T04:55:51.447Z,58.72
2023-02-11T04:58:19.171Z,58.92
2023-02-11T05:00:47.038Z,55.00
2023-02-11T05:03:14.229Z,54.20
2023-02-11T05:05:42.692Z,54.75
2023-02-11T05:08:12.688Z,57.65
2023-02-11T05:10:39.950Z,58.47
2023-02-11T05:13:06.780Z,61.50
2023-02-11T05:15:33.699Z,60.20
2023-02-11T05:18:00.658Z,58.75
2023-02-11T05:20:27.575Z,58.97
2023-02-11T05:22:54.467Z,58.35
2023-02-11T05:25:21.524Z,62.63
2023-02-11T05:27:48.431Z,57.40
2023-02-11T05:30:15.652Z,60.22
2023-02-11T05:32:42.610Z,62.35
2023-02-11T05:35:09.637Z,60.65
2023-02-11T05:37:36.586Z,72.72
2023-02-11T05:40:04.615Z,73.53
2023-02-11T05:42:31.514Z,65.63
2023-02-11T05:44:58.513Z,67.25
2023-02-11T05:47:25.478Z,68.18
2023-02-11T05:49:53.616Z,64.35
2023-02-11T05:52:21.995Z,62.47
2023-02-11T05:54:49.018Z,60.83
2023-02-11T05:57:16.967Z,60.88
2023-02-11T05:59:43.926Z,57.60
2023-02-11T06:02:11.273Z,61.85
2023-02-11T06:04:38.475Z,50.65
2023-02-11T06:07:05.554Z,54.70
2023-02-11T06:09:32.482Z,55.67
2023-02-11T06:11:59.475Z,53.28
2023-02-11T06:14:26.360Z,58.50
2023-02-11T06:16:53.363Z,59.38
2023-02-11T06:19:20.239Z,54.63
2023-02-11T06:21:47.196Z,59.38
2023-02-11T06:24:14.169Z,60.67
2023-02-11T06:26:41.368Z,60.53
2023-02-11T06:29:08.289Z,61.15
2023-02-11T06:31:37.174Z,60.10
2023-02-11T06:34:05.049Z,59.67
2023-02-11T06:36:31.908Z,58.83
2023-02-11T06:38:58.834Z,58.15
2023-02-11T06:41:26.056Z,59.63
2023-02-11T06:43:53.610Z,54.75
2023-02-11T06:46:20.780Z,61.40
2023-02-11T06:48:47.887Z,67.20
2023-02-11T06:51:15.721Z,67.80
2023-02-11T06:53:45.427Z,71.45
2023-02-11T06:56:15.422Z,57.08
2023-02-11T06:58:42.603Z,57.35
2023-02-11T07:01:14.962Z,59.22
2023-02-11T07:03:44.714Z,57.65
2023-02-11T07:06:15.445Z,59.30
2023-02-11T07:08:43.102Z,62.65
2023-02-11T07:11:17.546Z,63.00
2023-02-11T07:13:44.642Z,62.67
2023-02-11T07:16:14.904Z,59.08
2023-02-11T07:18:42.303Z,62.55
2023-02-11T07:21:12.399Z,62.63
2023-02-11T07:23:40.818Z,57.65
2023-02-11T07:26:10.048Z,60.30
2023-02-11T07:28:38.109Z,56.50
2023-02-11T07:31:16.989Z,59.58
2023-02-11T07:33:45.848Z,55.47
2023-02-11T07:36:14.649Z,55.13
2023-02-11T07:38:41.958Z,54.10
2023-02-11T07:41:11.734Z,56.33
2023-02-11T07:43:40.095Z,54.60
2023-02-11T07:46:10.487Z,55.05
2023-02-11T07:48:37.831Z,54.55
2023-02-11T07:51:16.440Z,53.72
2023-02-11T07:53:44.391Z,59.10
2023-02-11T07:56:13.096Z,55.17
2023-02-11T07:58:42.285Z,54.53
2023-02-11T08:01:12.224Z,58.70
2023-02-11T08:03:41.961Z,58.50
2023-02-11T08:06:17.040Z,61.60
2023-02-11T08:08:44.147Z,58.65
2023-02-11T08:11:20.290Z,57.35
2023-02-11T08:13:47.542Z,56.08
2023-02-11T08:19:28.539Z,58.83
2023-02-11T08:21:59.301Z,55.95
2023-02-11T08:24:26.222Z,56.63
2023-02-11T08:26:53.183Z,56.75
2023-02-11T08:29:20.134Z,49.45
2023-02-11T08:31:47.838Z,55.35
2023-02-11T08:43:29.489Z,57.20
2023-02-11T08:45:56.981Z,53.88
2023-02-11T09:01:53.807Z,55.20
2023-02-11T09:09:04.492Z,61.30
2023-02-11T09:16:40.863Z,56.20
2023-02-11T09:19:11.151Z,56.58
2023-02-11T09:21:40.084Z,54.30
2023-02-11T09:24:07.574Z,55.45
2023-02-11T09:26:55.580Z,51.28
2023-02-11T09:34:23.250Z,56.47
2023-02-11T09:40:53.479Z,50.38
2023-02-11T09:43:49.651Z,49.53
2023-02-11T09:46:19.929Z,52.60
2023-02-11T09:58:55.291Z,49.63
2023-02-11T10:06:25.648Z,52.25
2023-02-11T10:12:46.214Z,54.50
2023-02-11T10:16:02.160Z,55.58
2023-02-11T10:18:51.118Z,58.88
2023-02-11T10:24:23.985Z,63.50
2023-02-11T10:30:16.323Z,61.90
2023-02-11T10:33:25.428Z,65.22
2023-02-11T10:35:52.459Z,58.78
2023-02-11T10:38:19.521Z,55.85
2023-02-11T10:40:46.831Z,59.53
2023-02-11T10:43:19.983Z,63.53
2023-02-11T10:45:52.767Z,58.00
2023-02-11T10:49:03.575Z,54.90
2023-02-11T10:51:35.716Z,51.13
2023-02-11T10:54:12.602Z,53.33
2023-02-11T10:56:46.624Z,52.60
2023-02-11T10:59:30.295Z,52.67
2023-02-11T11:02:03.533Z,54.42
2023-02-11T11:04:30.820Z,53.00
2023-02-11T11:07:42.058Z,59.38
2023-02-11T11:10:56.014Z,53.80
2023-02-11T11:13:31.711Z,54.00
2023-02-11T11:16:48.979Z,53.33
2023-02-11T11:19:54.752Z,63.63
2023-02-11T11:22:47.629Z,60.38
2023-02-11T11:25:21.658Z,60.85
2023-02-11T11:27:55.710Z,60.72
2023-02-11T11:30:28.461Z,55.75
2023-02-11T11:32:56.705Z,63.50
2023-02-11T11:35:29.918Z,66.13
2023-02-11T11:38:02.365Z,61.97
2023-02-11T11:40:33.059Z,62.10
2023-02-11T11:43:07.264Z,60.88
2023-02-11T11:45:34.185Z,63.88
2023-02-11T11:48:36.698Z,68.72
2023-02-11T11:51:12.111Z,62.45
2023-02-11T11:54:00.128Z,63.22
2023-02-11T11:56:34.020Z,59.38
2023-02-11T11:59:06.534Z,59.92
2023-02-11T12:01:33.513Z,56.25
2023-02-11T12:04:42.024Z,53.95
2023-02-11T12:07:25.810Z,55.70
2023-02-11T12:10:14.164Z,54.67
2023-02-11T12:13:05.047Z,51.90
2023-02-11T12:16:10.125Z,49.55
2023-02-11T12:19:04.910Z,48.00
2023-02-11T12:21:50.685Z,51.45
2023-02-11T12:24:56.489Z,49.03
2023-02-11T12:27:35.727Z,49.15
2023-02-11T12:30:33.500Z,46.05
2023-02-11T12:33:23.242Z,47.60
2023-02-11T12:38:49.390Z,45.92
2023-02-11T12:42:18.840Z,50.83
2023-02-11T12:44:56.508Z,42.28
2023-02-11T12:47:38.429Z,41.85
2023-02-11T12:50:34.491Z,38.83
2023-02-11T12:53:12.152Z,46.58
2023-02-11T12:55:43.256Z,39.50
2023-02-11T12:58:19.007Z,41.13
2023-02-11T13:00:55.110Z,40.55
2023-02-11T13:03:34.993Z,37.75
2023-02-11T13:06:10.825Z,43.13
2023-02-11T13:08:44.416Z,39.40
2023-02-11T13:11:20.210Z,35.17
2023-02-11T13:13:51.331Z,36.33
2023-02-11T13:16:39.477Z,32.90
2023-02-11T13:19:06.397Z,34.92
2023-02-11T13:21:53.490Z,31.52
2023-02-11T13:24:20.377Z,35.88
2023-02-11T13:27:04.392Z,38.05
2023-02-11T13:30:00.319Z,32.90
2023-02-11T13:32:54.611Z,35.22
2023-02-11T13:35:30.480Z,33.65
2023-02-11T13:37:59.477Z,31.92
2023-02-11T13:40:28.778Z,32.43
2023-02-11T13:42:59.715Z,35.20
2023-02-11T13:45:43.540Z,35.85
2023-02-11T13:48:27.743Z,33.70
2023-02-11T13:50:59.071Z,32.33
2023-02-11T13:53:27.575Z,30.63
2023-02-11T13:56:12.621Z,33.78
2023-02-11T13:58:51.057Z,34.70
2023-02-11T14:01:39.943Z,34.80
2023-02-11T14:04:44.204Z,29.43
2023-02-11T14:07:58.434Z,31.92
2023-02-11T14:10:43.611Z,33.90
2023-02-11T14:13:25.437Z,29.67
2023-02-11T14:16:20.420Z,34.38
2023-02-11T14:18:55.231Z,32.47
2023-02-11T14:23:54.455Z,27.30
2023-02-11T14:26:21.277Z,31.50
2023-02-11T14:28:58.816Z,32.22
2023-02-11T14:31:37.249Z,32.47
2023-02-11T14:34:35.419Z,33.08
2023-02-11T14:37:16.422Z,34.10
2023-02-11T14:39:49.581Z,35.95
2023-02-11T14:42:20.867Z,35.70
2023-02-11T14:44:50.644Z,36.30
2023-02-11T14:49:48.368Z,38.05
2023-02-11T14:52:27.579Z,36.13
2023-02-11T14:55:07.523Z,36.65
2023-02-11T14:57:35.190Z,36.28
2023-02-11T15:00:13.817Z,36.08
2023-02-11T15:02:43.241Z,33.88
2023-02-11T15:05:27.332Z,38.28
2023-02-11T15:08:00.499Z,37.90
2023-02-11T15:10:37.949Z,33.95
2023-02-11T15:13:05.901Z,34.88
2023-02-11T15:15:35.829Z,33.45
2023-02-11T15:18:04.574Z,35.65
2023-02-11T15:20:33.817Z,33.83
2023-02-11T15:23:04.916Z,34.97
2023-02-11T15:25:34.160Z,32.17
2023-02-11T15:28:01.609Z,35.03
2023-02-11T15:30:36.053Z,45.13
2023-02-11T15:33:05.930Z,55.85
2023-02-11T15:38:29.929Z,55.00
2023-02-11T15:41:02.295Z,61.00
2023-02-11T15:43:45.774Z,58.50
2023-02-11T15:46:19.271Z,56.83
2023-02-11T15:48:49.463Z,56.95
2023-02-11T15:51:29.938Z,45.22
2023-02-11T15:54:00.148Z,45.70
2023-02-11T15:56:43.127Z,40.75
2023-02-11T15:59:16.404Z,46.03
2023-02-11T16:01:44.890Z,41.97
2023-02-11T16:04:23.617Z,39.95
2023-02-11T16:06:51.527Z,36.28
2023-02-11T16:09:34.277Z,41.70
2023-02-11T16:12:29.223Z,40.15
2023-02-11T16:14:59.811Z,36.75
2023-02-11T16:17:29.100Z,37.40
2023-02-11T16:19:58.918Z,37.60
2023-02-11T16:22:35.458Z,34.38
2023-02-11T16:25:02.697Z,40.75
2023-02-11T16:27:40.370Z,42.20
2023-02-11T16:30:37.620Z,35.67
2023-02-11T16:33:05.566Z,44.78
2023-02-11T16:35:32.744Z,48.60
2023-02-11T16:37:59.695Z,44.47
2023-02-11T16:40:26.590Z,45.60
2023-02-11T16:42:53.707Z,47.55
2023-02-11T16:45:20.857Z,43.63
2023-02-11T16:47:47.863Z,45.00
2023-02-11T16:50:23.801Z,38.78
2023-02-11T16:52:52.487Z,45.63
2023-02-11T16:55:21.982Z,41.72
2023-02-11T16:57:49.381Z,45.55
2023-02-11T17:00:17.454Z,44.90
2023-02-11T17:02:44.765Z,48.30
2023-02-11T17:05:19.351Z,38.55
2023-02-11T17:07:46.775Z,39.80
2023-02-11T17:10:16.311Z,43.15
2023-02-11T17:12:43.217Z,35.83
2023-02-11T17:15:10.830Z,37.88
2023-02-11T17:17:37.733Z,31.80
2023-02-11T17:20:05.195Z,33.08
2023-02-11T17:22:32.074Z,37.72
2023-02-11T17:24:59.219Z,29.40
2023-02-11T17:27:26.134Z,33.33
2023-02-11T17:29:53.018Z,42.30
2023-02-11T17:32:20.041Z,43.72
2023-02-11T17:34:47.116Z,38.45
2023-02-11T17:37:14.177Z,38.20
2023-02-11T17:39:41.496Z,39.35
2023-02-11T17:42:08.862Z,42.13
2023-02-11T17:44:38.859Z,43.88
2023-02-11T17:47:05.787Z,38.25
2023-02-11T17:49:36.882Z,38.63
2023-02-11T17:52:03.875Z,42.28
2023-02-11T17:54:30.782Z,37.95
2023-02-11T17:56:58.589Z,41.92
2023-02-11T17:59:25.972Z,43.70
2023-02-11T18:01:52.878Z,43.47
2023-02-11T18:04:20.360Z,46.28
2023-02-11T18:06:47.433Z,55.65
2023-02-11T18:09:14.316Z,63.95
2023-02-11T18:11:41.585Z,64.53
2023-02-11T18:14:08.990Z,59.92
2023-02-11T18:16:39.070Z,52.28
2023-02-11T18:19:07.522Z,57.50
2023-02-11T18:21:35.095Z,59.47
2023-02-11T18:24:06.490Z,54.97
2023-02-11T18:26:37.031Z,55.97
2023-02-11T18:29:06.603Z,56.50
2023-02-11T18:31:35.492Z,55.15
2023-02-11T18:34:05.751Z,55.90
2023-02-11T18:36:36.597Z,64.10
2023-02-11T18:39:05.148Z,58.63
2023-02-11T18:41:32.518Z,60.13
2023-02-11T18:44:02.947Z,56.03
2023-02-11T18:46:31.475Z,62.55
2023-02-11T18:49:01.561Z,63.72
2023-02-11T18:51:35.166Z,56.30
2023-02-11T18:54:05.190Z,59.40
2023-02-11T18:56:32.395Z,57.88
2023-02-11T18:59:01.466Z,59.50
2023-02-11T19:01:30.010Z,55.58
2023-02-11T19:04:04.524Z,54.47
2023-02-11T19:06:35.041Z,47.15
2023-02-11T19:09:09.847Z,42.63
2023-02-11T19:11:48.805Z,59.13
2023-02-11T19:14:19.119Z,58.08
2023-02-11T19:16:47.516Z,64.93
2023-02-11T19:19:14.858Z,57.50
2023-02-11T19:21:43.856Z,58.45
2023-02-11T19:24:11.486Z,64.53
2023-02-11T19:26:38.495Z,63.42
2023-02-11T19:29:06.782Z,71.55
2023-02-11T19:31:34.083Z,78.43
2023-02-11T19:34:02.739Z,67.18
2023-02-11T19:36:30.232Z,118.10
2023-02-11T19:39:02.577Z,120.78
2023-02-11T19:41:30.670Z,132.50
2023-02-11T19:43:57.613Z,113.28
2023-02-11T19:46:27.043Z,120.60
2023-02-11T19:48:55.182Z,111.20
2023-02-11T19:51:24.907Z,97.53
2023-02-11T19:53:51.796Z,101.68
2023-02-11T19:56:20.800Z,91.80
2023-02-11T19:58:48.185Z,75.15
2023-02-11T20:01:18.862Z,68.95
2023-02-11T20:03:50.053Z,67.53
2023-02-11T20:06:23.522Z,69.57
2023-02-11T20:09:10.055Z,68.03
2023-02-11T20:11:38.079Z,76.63
2023-02-11T20:14:06.819Z,71.03
2023-02-11T20:16:47.595Z,70.80
2023-02-11T20:19:18.512Z,62.88
2023-02-11T20:21:48.503Z,70.65
2023-02-11T20:24:18.678Z,65.55
2023-02-11T20:26:48.341Z,66.93
2023-02-11T20:29:19.858Z,67.15
2023-02-11T20:31:50.504Z,76.07
2023-02-11T20:34:18.359Z,75.72
2023-02-11T20:36:52.855Z,75.88
2023-02-11T20:39:30.092Z,82.00
2023-02-11T20:41:58.250Z,90.22
2023-02-11T20:44:25.370Z,93.25
2023-02-11T20:47:31.646Z,101.53
2023-02-11T20:49:59.223Z,100.93
2023-02-11T20:52:26.548Z,98.97
2023-02-11T20:55:19.792Z,109.13
2023-02-11T20:58:17.435Z,111.35
2023-02-11T21:05:05.792Z,116.55
2023-02-11T21:11:12.407Z,103.00
2023-02-11T21:13:41.327Z,90.07
2023-02-11T21:16:09.918Z,82.30
2023-02-11T21:18:37.190Z,85.72
2023-02-11T21:21:06.943Z,80.70
2023-02-11T21:23:34.612Z,100.45
2023-02-11T21:26:01.946Z,106.90
2023-02-11T21:28:31.800Z,94.35
2023-02-11T21:30:59.715Z,99.97
2023-02-11T21:33:28.605Z,93.97
2023-02-11T21:35:59.842Z,77.95
2023-02-11T21:38:27.136Z,79.40
2023-02-11T21:40:54.371Z,78.00
2023-02-11T21:43:21.883Z,78.82
2023-02-11T21:45:52.032Z,79.40
2023-02-11T21:48:19.484Z,79.97
2023-02-11T21:50:47.341Z,74.78
2023-02-11T21:53:16.611Z,82.45
2023-02-11T21:55:44.081Z,79.25
2023-02-11T21:58:12.923Z,79.53
2023-02-11T22:00:40.337Z,77.47
2023-02-11T22:03:07.595Z,75.55
2023-02-11T22:05:44.447Z,79.95
2023-02-11T22:08:13.013Z,80.03
2023-02-11T22:11:49.748Z,78.85
2023-02-11T22:14:17.694Z,81.18
2023-02-11T22:16:47.199Z,73.25
2023-02-11T22:19:14.715Z,73.15
2023-02-11T22:21:53.955Z,74.93
2023-02-11T22:24:21.507Z,71.15
2023-02-11T22:26:49.125Z,74.47
2023-02-11T22:29:16.382Z,78.70
2023-02-11T22:32:05.405Z,78.03
2023-02-11T22:34:33.355Z,74.03
2023-02-11T22:38:17.411Z,69.93
2023-02-11T22:40:45.252Z,78.55
2023-02-11T22:43:12.446Z,88.88
2023-02-11T22:45:39.852Z,88.55
2023-02-11T22:48:08.745Z,102.57
2023-02-11T22:50:36.046Z,96.28
2023-02-11T22:53:03.671Z,111.72
2023-02-11T22:55:30.891Z,106.78
2023-02-11T22:57:58.384Z,105.38
2023-02-11T23:00:30.469Z,98.93
2023-02-11T23:02:57.802Z,91.80
2023-02-11T23:05:25.279Z,97.03
2023-02-11T23:07:52.795Z,93.45
2023-02-11T23:10:20.190Z,92.55
2023-02-11T23:12:47.523Z,89.80
2023-02-11T23:15:14.822Z,86.18
2023-02-11T23:17:42.282Z,84.18
2023-02-11T23:20:10.251Z,84.28
2023-02-11T23:22:37.727Z,86.18
2023-02-11T23:30:16.178Z,79.55
2023-02-11T23:32:43.537Z,87.15
2023-02-11T23:35:10.820Z,80.75
2023-02-11T23:37:37.889Z,78.72
2023-02-11T23:40:05.796Z,84.50
2023-02-11T23:42:33.059Z,87.55
2023-02-11T23:45:00.528Z,90.00
2023-02-11T23:47:27.888Z,83.43
2023-02-11T23:49:55.990Z,83.80
2023-02-11T23:52:24.764Z,83.05
2023-02-11T23:54:52.059Z,83.70
2023-02-11T23:57:19.285Z,81.10
2023-02-11T23:59:58.087Z,81.07
